Sugar Land Regional Airport Houston US
ICAO: KSGR
IATA: SGR
Category: Medium
Scheduled Services: No

Elevation: 82 ft
TransAlt. 18000 ft.

Airport Communications:
HOUSTON APP/DEP:123.8
ASOS:118.125
CTAF:118.65
GND/CLNC DEL:121.4
TWR:118.65
UNICOM:122.95

KSGR Zoom In..

Runways:

(A) RW 17 length 8000 ft width 100 ft
---- / hdg 170

(B) RW 35 length 8000 ft width 100 ft
ILS 110.70 / hdg 350

Location; KSGR
Day. 24 / Time. 13.01 Zulu
* Altimeter: 30.06
* Temperature: 26° c. 78.8°f.
* Wind from: 080° Speed 06 kn.
Dewpoint: 22° c.
Visibility: 10 Statute Miles.
Clouds: Few 1200 ft.
Clouds: Scattered 2100 ft.
Clouds: Scattered 2600 ft.

KSGR 241301Z 08006KT 10SM FEW012 SCT021 SCT026 26/22 A3006 RMK AO2 T02560222


Wind From 080°
Speed 06 kn.

 
 
jpsmedia.com for Web Design SOUNDCLOUD worldairports.se 2018   terms of use